createdAt,value
2019-01-21T00:00:48.075Z,97978.20
2019-01-21T00:03:18.730Z,97974.47
2019-01-21T00:05:49.366Z,97974.33
2019-01-21T00:08:38.785Z,97975.42
2019-01-21T00:11:21.061Z,97978.20
2019-01-21T00:14:10.586Z,97948.19
2019-01-21T00:16:53.071Z,97977.06
2019-01-21T00:19:42.600Z,97981.64
2019-01-21T00:22:24.775Z,97981.33
2019-01-21T00:25:14.321Z,97990.61
2019-01-21T00:27:56.861Z,97976.09
2019-01-21T00:30:46.270Z,97985.11
2019-01-21T00:33:28.257Z,97991.30
2019-01-21T00:36:17.645Z,97988.92
2019-01-21T00:39:00.185Z,98018.84
2019-01-21T00:41:49.623Z,97997.50
2019-01-21T00:44:31.570Z,97997.97
2019-01-21T00:47:21.049Z,97994.03
2019-01-21T00:50:03.242Z,97993.88
2019-01-21T00:52:52.767Z,97994.75
2019-01-21T00:55:35.257Z,98000.95
2019-01-21T00:58:24.814Z,97938.60
2019-01-21T01:01:07.001Z,98000.59
2019-01-21T01:03:37.423Z,98002.86
2019-01-21T01:06:27.360Z,98005.96
2019-01-21T01:09:16.837Z,98006.28
2019-01-21T01:11:58.952Z,97942.02
2019-01-21T01:14:48.468Z,97942.66
2019-01-21T01:17:37.155Z,97968.56
2019-01-21T01:20:22.816Z,98016.27
2019-01-21T01:23:05.097Z,98019.16
2019-01-21T01:25:54.644Z,98026.29
2019-01-21T01:28:36.963Z,98025.34
2019-01-21T01:31:07.322Z,98025.34
2019-01-21T01:33:37.655Z,98029.16
2019-01-21T01:36:08.064Z,98023.02
2019-01-21T01:38:39.458Z,98028.13
2019-01-21T01:41:09.873Z,98030.72
2019-01-21T01:43:59.393Z,98028.20
2019-01-21T01:46:41.612Z,98021.12
2019-01-21T01:49:31.065Z,98027.08
2019-01-21T01:52:14.843Z,98031.28
2019-01-21T01:55:05.913Z,98028.70
2019-01-21T01:57:36.395Z,98030.59
2019-01-21T02:00:11.895Z,98038.74
2019-01-21T02:02:42.487Z,98030.22
2019-01-21T02:05:12.923Z,98032.59
2019-01-21T02:07:43.402Z,98026.45
2019-01-21T02:13:46.032Z,98030.78
2019-01-21T02:16:28.679Z,98040.18
2019-01-21T02:19:57.827Z,98035.71
2019-01-21T02:22:42.551Z,97977.23
2019-01-21T02:25:54.453Z,98039.66
2019-01-21T02:28:59.176Z,98028.30
2019-01-21T02:32:26.836Z,98037.09
2019-01-21T02:39:23.633Z,98085.94
2019-01-21T02:42:08.907Z,98032.61
2019-01-21T02:45:36.602Z,97977.82
2019-01-21T02:51:57.125Z,98038.64
2019-01-21T02:54:47.176Z,98037.71
2019-01-21T02:58:14.826Z,98031.30
2019-01-21T03:01:00.339Z,98023.53
2019-01-21T03:04:28.044Z,97988.84
2019-01-21T03:07:28.845Z,98027.45
2019-01-21T03:10:56.496Z,98035.48
2019-01-21T03:13:58.141Z,98026.29
2019-01-21T03:17:25.817Z,97981.66
2019-01-21T03:20:53.471Z,98028.46
2019-01-21T03:27:26.911Z,98023.32
2019-01-21T03:34:16.100Z,98025.23
2019-01-21T03:37:43.744Z,97977.55
2019-01-21T03:44:17.553Z,98025.70
2019-01-21T03:47:21.041Z,98031.50
2019-01-21T03:50:48.754Z,98030.20
2019-01-21T03:53:38.327Z,98007.84
2019-01-21T03:56:51.533Z,98044.58
2019-01-21T03:59:36.755Z,98040.05
2019-01-21T04:03:04.467Z,98042.99
2019-01-21T04:06:32.158Z,98048.06
2019-01-21T04:09:32.928Z,97984.50
2019-01-21T04:12:56.092Z,98041.58
2019-01-21T04:16:23.734Z,98043.28
2019-01-21T04:19:25.394Z,98041.98
2019-01-21T04:22:48.622Z,98034.20
2019-01-21T04:26:01.190Z,98041.33
2019-01-21T04:29:14.154Z,98043.56
2019-01-21T04:32:00.435Z,97973.75
2019-01-21T04:35:28.078Z,97959.52
2019-01-21T04:38:29.499Z,98034.14
2019-01-21T04:41:57.146Z,98023.67
2019-01-21T04:45:24.830Z,98035.25
2019-01-21T04:48:33.746Z,98024.67
2019-01-21T04:52:01.441Z,98035.85
2019-01-21T04:55:03.109Z,98037.72
2019-01-21T04:58:30.780Z,98044.48
2019-01-21T05:01:31.854Z,98039.63
2019-01-21T05:04:36.484Z,98040.72
2019-01-21T05:08:04.147Z,98040.84
2019-01-21T05:11:08.070Z,98049.98
2019-01-21T05:14:35.793Z,98045.16
2019-01-21T05:18:03.487Z,98050.83
2019-01-21T05:21:04.905Z,98054.56
2019-01-21T05:24:05.309Z,98055.66
2019-01-21T05:27:33.353Z,97979.69
2019-01-21T05:30:19.978Z,98054.77
2019-01-21T05:33:37.366Z,98065.58
2019-01-21T05:36:24.438Z,98059.29
2019-01-21T05:39:52.094Z,98060.39
2019-01-21T05:42:53.570Z,98066.33
2019-01-21T05:49:46.458Z,98069.73
2019-01-21T05:53:03.843Z,98071.31
2019-01-21T05:56:31.505Z,98103.56
2019-01-21T05:59:33.271Z,98055.49
2019-01-21T06:03:01.005Z,98081.37
2019-01-21T06:06:28.698Z,98086.48
2019-01-21T06:09:40.363Z,98035.47
2019-01-21T06:13:08.057Z,98085.22
2019-01-21T06:15:59.869Z,98086.64
2019-01-21T06:19:13.833Z,98085.97
2019-01-21T06:22:18.161Z,98089.55
2019-01-21T06:25:33.932Z,98095.36
2019-01-21T06:28:50.869Z,98102.47
2019-01-21T06:31:52.005Z,98108.32
2019-01-21T06:35:19.707Z,98107.06
2019-01-21T06:38:23.786Z,98106.23
2019-01-21T06:41:51.554Z,98110.91
2019-01-21T06:44:55.889Z,98104.79
2019-01-21T06:48:23.682Z,98103.45
2019-01-21T06:51:51.374Z,98107.03
2019-01-21T06:55:19.057Z,98114.44
2019-01-21T06:58:05.805Z,98127.13
2019-01-21T07:01:29.027Z,98115.05
2019-01-21T07:08:14.536Z,98102.55
2019-01-21T07:11:03.023Z,98095.73
2019-01-21T07:14:01.817Z,98064.89
2019-01-21T07:17:03.003Z,98134.53
2019-01-21T07:20:30.732Z,98136.56
2019-01-21T07:23:31.947Z,98144.66
2019-01-21T07:26:44.680Z,98150.53
2019-01-21T07:29:35.309Z,98147.83
2019-01-21T07:33:03.153Z,98139.99
2019-01-21T07:36:07.455Z,98140.22
2019-01-21T07:39:35.189Z,98145.05
2019-01-21T07:42:48.756Z,98112.78
2019-01-21T07:45:58.121Z,98158.69
2019-01-21T07:49:25.808Z,98157.28
2019-01-21T07:52:27.073Z,98132.23
2019-01-21T07:55:54.800Z,98150.60
2019-01-21T07:59:14.171Z,98153.39
2019-01-21T08:02:14.928Z,98156.77
2019-01-21T08:05:09.277Z,98148.17
2019-01-21T08:08:21.521Z,98167.95
2019-01-21T08:11:22.584Z,98165.44
2019-01-21T08:14:34.614Z,98162.97
2019-01-21T08:17:36.031Z,98165.84
2019-01-21T08:21:03.808Z,98159.45
2019-01-21T08:23:52.521Z,98162.17
2019-01-21T08:27:20.175Z,98166.75
2019-01-21T08:30:21.476Z,98160.69
2019-01-21T08:33:49.171Z,98097.75
2019-01-21T08:36:50.014Z,98086.37
2019-01-21T08:40:12.779Z,98175.11
2019-01-21T08:43:40.446Z,98169.44
2019-01-21T08:46:42.342Z,98173.45
2019-01-21T08:49:55.319Z,98173.72
2019-01-21T08:52:56.324Z,98142.38
2019-01-21T08:56:17.226Z,98170.45
2019-01-21T08:59:38.930Z,98167.16
2019-01-21T09:06:40.876Z,98165.63
2019-01-21T09:09:42.641Z,98164.75
2019-01-21T09:13:05.092Z,98179.21
2019-01-21T09:16:36.025Z,98175.80
2019-01-21T09:20:03.942Z,98173.30
2019-01-21T09:22:52.272Z,98168.85
2019-01-21T09:26:19.951Z,98184.63
2019-01-21T09:29:21.625Z,98179.41
2019-01-21T09:32:49.282Z,98184.63
2019-01-21T09:35:50.740Z,98188.31
2019-01-21T09:39:18.824Z,98186.70
2019-01-21T09:42:20.141Z,98191.08
2019-01-21T09:45:35.117Z,98188.27
2019-01-21T09:48:16.902Z,98135.33
2019-01-21T09:54:19.898Z,98185.53
2019-01-21T09:57:22.529Z,98190.05
2019-01-21T10:03:43.550Z,98190.17
2019-01-21T10:10:26.339Z,98187.02
2019-01-21T10:13:54.001Z,98240.70
2019-01-21T10:16:55.706Z,98189.38
2019-01-21T10:20:23.470Z,98186.50
2019-01-21T10:23:09.664Z,98185.09
2019-01-21T10:26:37.336Z,98164.51
2019-01-21T10:29:59.050Z,98185.81
2019-01-21T10:33:00.111Z,98186.36
2019-01-21T10:36:27.814Z,98176.02
2019-01-21T10:39:28.987Z,98182.77
2019-01-21T10:42:56.646Z,98138.75
2019-01-21T10:46:27.132Z,98178.14
2019-01-21T10:49:57.423Z,98173.34
2019-01-21T10:52:51.954Z,98166.05
2019-01-21T10:56:19.632Z,98161.83
2019-01-21T10:59:20.707Z,98153.70
2019-01-21T11:02:35.275Z,98157.94
2019-01-21T11:06:03.040Z,98159.72
2019-01-21T11:09:30.728Z,98158.08
2019-01-21T11:12:35.404Z,98154.53
2019-01-21T11:15:46.767Z,98153.45
2019-01-21T11:18:35.900Z,98157.52
2019-01-21T11:22:03.608Z,98115.81
2019-01-21T11:24:53.550Z,98151.92
2019-01-21T11:28:21.226Z,98090.17
2019-01-21T11:31:23.786Z,98147.05
2019-01-21T11:34:24.957Z,98113.63
2019-01-21T11:37:52.679Z,98146.42
2019-01-21T11:41:00.346Z,98145.66
2019-01-21T11:44:28.058Z,98146.75
2019-01-21T11:47:19.340Z,98147.60
2019-01-21T11:50:32.067Z,98143.48
2019-01-21T11:53:33.296Z,98142.00
2019-01-21T11:57:00.992Z,98143.63
2019-01-21T11:59:50.401Z,98139.03
2019-01-21T12:03:23.509Z,98097.78
2019-01-21T12:06:23.468Z,98134.67
2019-01-21T12:09:51.166Z,98142.52
2019-01-21T12:12:46.182Z,98131.11
2019-01-21T12:15:56.743Z,98136.52
2019-01-21T12:19:49.844Z,98131.30
2019-01-21T12:23:04.684Z,98124.43
2019-01-21T12:26:19.789Z,98126.55
2019-01-21T12:29:24.448Z,98128.67
2019-01-21T12:32:59.613Z,98125.58
2019-01-21T12:35:59.930Z,98118.23
2019-01-21T12:39:26.261Z,98124.08
2019-01-21T12:42:36.118Z,98125.58
2019-01-21T12:46:03.579Z,98116.92
2019-01-21T12:49:26.831Z,98112.67
2019-01-21T12:52:41.027Z,98108.91
2019-01-21T12:56:03.897Z,98105.66
2019-01-21T12:59:46.517Z,98110.53
2019-01-21T13:02:59.264Z,98105.31
2019-01-21T13:05:58.261Z,98108.42
2019-01-21T13:08:44.645Z,98098.31
2019-01-21T13:11:56.515Z,98097.48
2019-01-21T13:15:26.027Z,98097.48
2019-01-21T13:19:02.413Z,98096.66
2019-01-21T13:22:29.854Z,98095.20
2019-01-21T13:26:07.581Z,98095.20
2019-01-21T13:29:37.141Z,98091.59
2019-01-21T13:33:03.641Z,98086.55
2019-01-21T13:36:12.676Z,98087.86
2019-01-21T13:39:38.004Z,98086.70
2019-01-21T13:42:53.205Z,98083.77
2019-01-21T13:46:52.869Z,98083.61
2019-01-21T13:50:07.159Z,98079.20
2019-01-21T13:53:25.292Z,98080.52
2019-01-21T13:56:41.277Z,98079.36
2019-01-21T14:00:16.622Z,98081.34
2019-01-21T14:03:30.141Z,98079.21
2019-01-21T14:07:03.796Z,98077.23
2019-01-21T14:10:36.250Z,98077.08
2019-01-21T14:13:41.817Z,98070.70
2019-01-21T14:17:13.274Z,98079.53
2019-01-21T14:20:28.076Z,98075.62
2019-01-21T14:23:32.879Z,98062.57
2019-01-21T14:27:09.060Z,98071.52
2019-01-21T14:30:39.430Z,98066.48
2019-01-21T14:34:06.403Z,98063.06
2019-01-21T14:37:31.467Z,98062.88
2019-01-21T14:40:25.188Z,98058.95
2019-01-21T14:43:38.076Z,98048.36
2019-01-21T14:46:57.030Z,98047.88
2019-01-21T14:49:54.635Z,98043.14
2019-01-21T14:53:26.432Z,98046.89
2019-01-21T14:56:45.809Z,98037.59
2019-01-21T15:00:07.985Z,98036.77
2019-01-21T15:03:22.486Z,98035.46
2019-01-21T15:06:51.450Z,98043.96
2019-01-21T15:10:18.247Z,98054.07
2019-01-21T15:13:47.999Z,98033.03
2019-01-21T15:17:21.894Z,98037.59
2019-01-21T15:20:24.374Z,98034.97
2019-01-21T15:23:36.914Z,98036.61
2019-01-21T15:26:38.257Z,98034.33
2019-01-21T15:29:59.721Z,98034.14
2019-01-21T15:33:35.881Z,98040.34
2019-01-21T15:36:42.217Z,98043.91
2019-01-21T15:39:47.164Z,98035.22
2019-01-21T15:43:01.508Z,98039.11
2019-01-21T15:46:21.995Z,98036.32
2019-01-21T15:49:35.218Z,98032.70
2019-01-21T15:52:40.156Z,98042.30
2019-01-21T15:56:03.362Z,98044.70
2019-01-21T15:59:30.881Z,98050.39
2019-01-21T16:03:00.049Z,98043.61
2019-01-21T16:06:17.466Z,98046.07
2019-01-21T16:09:31.876Z,98042.01
2019-01-21T16:12:53.053Z,98043.17
2019-01-21T16:16:32.518Z,98037.98
2019-01-21T16:19:23.727Z,98049.73
2019-01-21T16:23:04.877Z,98046.42
2019-01-21T16:26:13.363Z,98046.66
2019-01-21T16:29:11.777Z,98042.22
2019-01-21T16:32:00.414Z,98045.36
2019-01-21T16:35:36.046Z,98044.37
2019-01-21T16:38:30.358Z,98042.27
2019-01-21T16:42:09.775Z,98038.25
2019-01-21T16:44:40.134Z,98052.31
2019-01-21T16:47:10.591Z,98057.69
2019-01-21T16:49:41.111Z,98055.94
2019-01-21T16:52:11.622Z,98054.75
2019-01-21T16:54:41.961Z,98054.02
2019-01-21T16:57:12.384Z,98053.87
2019-01-21T16:59:42.888Z,98045.77
2019-01-21T17:02:14.054Z,98040.30
2019-01-21T17:04:44.243Z,98034.84
2019-01-21T17:07:14.917Z,98025.27
2019-01-21T17:09:45.404Z,98013.98
2019-01-21T17:12:15.855Z,98024.55
2019-01-21T17:14:46.246Z,98031.61
2019-01-21T17:17:16.707Z,98033.84
2019-01-21T17:19:47.144Z,98031.97
2019-01-21T17:22:17.593Z,98024.81
2019-01-21T17:24:48.021Z,98026.03
2019-01-21T17:27:18.533Z,98032.39
2019-01-21T17:29:48.932Z,98033.03
2019-01-21T17:32:19.370Z,98033.75
2019-01-21T17:34:50.669Z,98034.30
2019-01-21T17:37:21.466Z,98038.00
2019-01-21T17:39:55.190Z,98029.06
2019-01-21T17:42:25.689Z,98040.78
2019-01-21T17:44:56.140Z,98044.45
2019-01-21T17:47:26.666Z,98047.42
2019-01-21T17:49:57.287Z,98035.86
2019-01-21T17:52:28.260Z,98044.17
2019-01-21T17:54:58.819Z,98045.27
2019-01-21T17:57:29.177Z,98044.48
2019-01-21T17:59:59.666Z,98039.97
2019-01-21T18:02:30.000Z,98045.55
2019-01-21T18:05:00.455Z,98051.91
2019-01-21T18:07:30.927Z,98046.31
2019-01-21T18:10:01.336Z,98043.77
2019-01-21T18:12:31.551Z,98046.88
2019-01-21T18:15:01.712Z,98049.30
2019-01-21T18:17:32.127Z,98048.84
2019-01-21T18:20:02.653Z,98050.34
2019-01-21T18:22:33.012Z,98049.81
2019-01-21T18:25:03.369Z,98047.45
2019-01-21T18:27:33.711Z,98048.34
2019-01-21T18:30:07.047Z,98043.14
2019-01-21T18:32:38.858Z,98043.59
2019-01-21T18:35:11.519Z,98040.31
2019-01-21T18:37:42.143Z,98036.09
2019-01-21T18:40:16.245Z,98041.09
2019-01-21T18:42:47.407Z,98047.31
2019-01-21T18:45:25.278Z,98053.30
2019-01-21T18:47:55.922Z,98053.91
2019-01-21T18:50:26.437Z,98057.36
2019-01-21T18:52:57.038Z,98053.80
2019-01-21T18:55:28.240Z,98056.10
2019-01-21T18:57:58.137Z,98051.90
2019-01-21T19:00:28.774Z,98049.27
2019-01-21T19:02:59.406Z,98045.38
2019-01-21T19:05:30.223Z,98038.48
2019-01-21T19:08:00.893Z,98035.09
2019-01-21T19:10:31.339Z,98037.56
2019-01-21T19:13:03.029Z,98041.84
2019-01-21T19:15:34.434Z,98039.11
2019-01-21T19:18:05.132Z,98043.52
2019-01-21T19:20:37.646Z,98040.23
2019-01-21T19:23:08.035Z,98049.57
2019-01-21T19:25:38.467Z,98049.41
2019-01-21T19:28:08.818Z,98047.88
2019-01-21T19:30:39.278Z,98047.85
2019-01-21T19:33:09.944Z,98043.02
2019-01-21T19:35:42.335Z,98036.30
2019-01-21T19:38:12.727Z,98031.38
2019-01-21T19:40:43.321Z,98038.45
2019-01-21T19:43:13.749Z,98030.38
2019-01-21T19:45:44.483Z,98026.81
2019-01-21T19:48:14.846Z,98023.61
2019-01-21T19:50:45.239Z,98021.72
2019-01-21T19:53:22.942Z,98019.85
2019-01-21T19:55:53.466Z,98010.08
2019-01-21T19:58:23.959Z,98012.33
2019-01-21T20:00:54.489Z,98017.63
2019-01-21T20:03:25.170Z,98010.28
2019-01-21T20:05:55.701Z,98021.44
2019-01-21T20:08:26.418Z,98020.70
2019-01-21T20:10:57.312Z,98018.21
2019-01-21T20:13:27.754Z,98015.83
2019-01-21T20:15:58.192Z,98017.75
2019-01-21T20:18:28.914Z,98004.69
2019-01-21T20:20:59.338Z,98011.87
2019-01-21T20:23:29.858Z,98014.04
2019-01-21T20:26:00.419Z,98013.89
2019-01-21T20:28:30.883Z,98016.89
2019-01-21T20:31:01.209Z,98017.31
2019-01-21T20:33:31.725Z,98017.97
2019-01-21T20:36:04.208Z,98019.80
2019-01-21T20:38:34.550Z,98016.66
2019-01-21T20:41:05.115Z,98020.94
2019-01-21T20:43:35.761Z,98023.56
2019-01-21T20:46:06.573Z,98025.03
2019-01-21T20:48:36.989Z,98021.02
2019-01-21T20:51:07.616Z,98022.62
2019-01-21T20:53:38.251Z,98023.34
2019-01-21T20:56:08.882Z,98030.00
2019-01-21T20:58:39.485Z,98034.36
2019-01-21T21:01:10.026Z,98035.23
2019-01-21T21:03:40.750Z,98030.81
2019-01-21T21:06:11.639Z,98025.13
2019-01-21T21:08:42.229Z,98026.91
2019-01-21T21:11:12.768Z,98027.25
2019-01-21T21:13:43.530Z,98022.09
2019-01-21T21:16:13.743Z,98022.40
2019-01-21T21:18:44.130Z,98012.55
2019-01-21T21:21:15.377Z,98011.58
2019-01-21T21:23:46.426Z,98012.61
2019-01-21T21:26:17.835Z,98006.88
2019-01-21T21:28:48.986Z,98002.92
2019-01-21T21:31:19.848Z,98004.82
2019-01-21T21:33:50.381Z,98002.81
2019-01-21T21:36:20.989Z,98000.55
2019-01-21T21:38:51.734Z,97996.28
2019-01-21T21:41:22.198Z,97995.34
2019-01-21T21:43:52.789Z,97994.98
2019-01-21T21:46:23.146Z,97998.28
2019-01-21T21:48:53.778Z,97998.40
2019-01-21T21:51:24.575Z,97996.70
2019-01-21T21:53:55.003Z,97996.95
2019-01-21T21:56:25.542Z,97992.69
2019-01-21T21:58:57.352Z,97985.84
2019-01-21T22:01:34.623Z,97983.32
2019-01-21T22:04:06.176Z,97982.56
2019-01-21T22:06:36.794Z,97991.71
2019-01-21T22:09:08.933Z,97988.67
2019-01-21T22:11:39.284Z,97979.77
2019-01-21T22:14:09.973Z,97986.06
2019-01-21T22:16:40.271Z,97987.20
2019-01-21T22:19:10.651Z,97979.94
2019-01-21T22:21:40.873Z,97971.98
2019-01-21T22:24:11.679Z,97981.20
2019-01-21T22:26:43.155Z,97976.05
2019-01-21T22:29:15.392Z,97976.48
2019-01-21T22:31:45.722Z,97979.63
2019-01-21T22:34:16.099Z,97968.60
2019-01-21T22:36:46.667Z,97973.41
2019-01-21T22:39:17.180Z,97969.64
2019-01-21T22:41:47.583Z,97966.69
2019-01-21T22:44:17.989Z,97963.27
2019-01-21T22:46:48.417Z,97958.81
2019-01-21T22:49:19.810Z,97951.02
2019-01-21T22:51:50.205Z,97954.05
2019-01-21T22:54:20.571Z,97955.16
2019-01-21T22:56:50.909Z,97947.33
2019-01-21T22:59:21.743Z,97947.03
2019-01-21T23:01:52.209Z,97941.06
2019-01-21T23:04:22.646Z,97933.82
2019-01-21T23:06:52.938Z,97926.20
2019-01-21T23:09:23.342Z,97925.12
2019-01-21T23:11:53.767Z,97926.08
2019-01-21T23:14:24.171Z,97927.35
2019-01-21T23:16:54.447Z,97919.18
2019-01-21T23:19:24.970Z,97917.66
2019-01-21T23:21:55.317Z,97917.61
2019-01-21T23:24:25.707Z,97917.19
2019-01-21T23:26:56.036Z,97917.45
2019-01-21T23:29:26.368Z,97913.88
2019-01-21T23:31:56.782Z,97914.61
2019-01-21T23:34:27.413Z,97910.72
2019-01-21T23:36:57.738Z,97905.41
2019-01-21T23:39:28.062Z,97899.45
2019-01-21T23:41:58.431Z,97896.70
2019-01-21T23:44:28.787Z,97894.47
2019-01-21T23:46:59.473Z,97892.17
2019-01-21T23:49:29.715Z,97895.28
2019-01-21T23:52:00.051Z,97895.59
2019-01-21T23:54:30.343Z,97889.45
2019-01-21T23:57:00.638Z,97883.13
2019-01-21T23:59:31.112Z,97883.92
